Time;durP1;ratioP1;P1;durP2;ratioP2;P2;SDS_P1;SDS_P2;PMS_P1;PMS_P2;Temp;Humidity;BMP_temperature;BMP_pressure;BME280_temperature;BME280_humidity;BME280_pressure;Samples;Min_cycle;Max_cycle;Signal;HPM_P1;HPM_P2
2022/06/20 00:01:28;;;;;;;1.50;1.23;;;;;;;-148.56;100.00;61375.16;5009964;28;20032;-31
2022/06/20 00:03:54;;;;;;;1.20;1.10;;;;;;;-148.56;100.00;61375.16;5014734;28;20033;-31
2022/06/20 00:06:21;;;;;;;1.30;1.13;;;;;;;-148.56;100.00;61375.16;5012897;28;20044;-30
2022/06/20 00:08:49;;;;;;;1.38;1.20;;;;;;;-148.56;100.00;61375.16;5009134;28;20108;-30
2022/06/20 00:11:19;;;;;;;1.30;1.20;;;;;;;-148.56;100.00;61375.16;5014718;28;20103;-31
2022/06/20 00:13:46;;;;;;;2.17;1.48;;;;;;;-148.56;100.00;61375.16;4996992;28;21608;-32
2022/06/20 00:16:15;;;;;;;1.30;1.20;;;;;;;-148.56;100.00;61375.16;5010278;28;20706;-31
2022/06/20 00:18:41;;;;;;;1.73;1.20;;;;;;;-148.56;100.00;61375.16;5014848;28;20041;-30
2022/06/20 00:21:09;;;;;;;2.42;1.30;;;;;;;-148.56;100.00;61375.16;5013687;28;20032;-33
2022/06/20 00:23:35;;;;;;;1.92;1.38;;;;;;;-148.56;100.00;61375.16;5002864;28;20598;-30
2022/06/20 00:26:00;;;;;;;1.05;0.98;;;;;;;-148.56;100.00;61375.16;5012520;28;20025;-30
2022/06/20 00:28:25;;;;;;;1.05;0.95;;;;;;;-148.56;100.00;61375.16;5010628;28;20152;-34
2022/06/20 00:30:51;;;;;;;1.35;1.13;;;;;;;-148.56;100.00;61375.16;5018021;28;20082;-31
2022/06/20 00:33:16;;;;;;;1.63;1.10;;;;;;;-148.56;100.00;61375.16;5010385;28;20018;-31
2022/06/20 00:35:42;;;;;;;1.55;1.20;;;;;;;-148.56;100.00;61375.16;5012918;28;20123;-33
2022/06/20 00:38:11;;;;;;;1.83;1.13;;;;;;;-148.56;100.00;61375.16;5008995;28;20068;-30
2022/06/20 00:40:43;;;;;;;1.50;1.10;;;;;;;-148.56;100.00;61375.16;5006040;28;20224;-30
2022/06/20 00:43:11;;;;;;;1.10;1.00;;;;;;;-148.56;100.00;61375.16;5008570;28;20086;-32
2022/06/20 00:45:41;;;;;;;1.40;1.30;;;;;;;-148.56;100.00;61375.16;5012848;28;20052;-31
2022/06/20 00:48:15;;;;;;;1.55;1.25;;;;;;;-148.56;100.00;61375.16;5010594;28;20022;-32
2022/06/20 00:50:40;;;;;;;1.23;1.13;;;;;;;-148.56;100.00;61375.16;4991090;28;20029;-32
2022/06/20 00:53:14;;;;;;;3.33;1.30;;;;;;;-148.56;100.00;61375.16;5009541;28;20902;-34
2022/06/20 00:55:50;;;;;;;1.23;1.13;;;;;;;-148.56;100.00;61375.16;5008322;28;20041;-31
2022/06/20 00:58:40;;;;;;;2.05;1.48;;;;;;;-148.56;100.00;61375.16;5007010;28;20077;-33
2022/06/20 01:01:11;;;;;;;1.38;1.17;;;;;;;-148.56;100.00;61375.16;5007046;28;20026;-30
2022/06/20 01:03:37;;;;;;;1.15;1.05;;;;;;;-148.56;100.00;61375.16;4996761;28;20112;-31
2022/06/20 01:06:05;;;;;;;1.30;1.20;;;;;;;-148.56;100.00;61375.16;5005191;28;20035;-32
2022/06/20 01:08:34;;;;;;;1.25;1.15;;;;;;;-148.56;100.00;61375.16;5001860;28;20030;-31
2022/06/20 01:11:03;;;;;;;1.20;1.10;;;;;;;-148.56;100.00;61375.16;5007765;28;20049;-30
2022/06/20 01:13:28;;;;;;;1.65;1.38;;;;;;;-148.56;100.00;61375.16;5009137;28;20025;-30
2022/06/20 01:16:00;;;;;;;1.40;1.20;;;;;;;-148.56;100.00;61375.16;5011525;28;20029;-32
2022/06/20 01:18:28;;;;;;;1.98;1.20;;;;;;;-148.56;100.00;61375.16;5005635;28;20033;-30
2022/06/20 01:20:54;;;;;;;1.15;1.02;;;;;;;-148.56;100.00;61375.16;5008047;28;20141;-29
2022/06/20 01:23:51;;;;;;;1.75;1.25;;;;;;;-148.56;100.00;61375.16;5005445;28;20042;-31
2022/06/20 01:26:31;;;;;;;1.50;1.17;;;;;;;-148.56;100.00;61375.16;5011198;28;20033;-31
2022/06/20 01:29:04;;;;;;;1.25;1.15;;;;;;;-148.56;100.00;61375.16;5004481;28;20021;-33
2022/06/20 01:31:31;;;;;;;1.60;1.10;;;;;;;-148.56;100.00;61375.16;5005596;28;20037;-31
2022/06/20 01:33:57;;;;;;;1.45;1.00;;;;;;;-148.56;100.00;61375.16;5009436;28;20534;-30
2022/06/20 01:39:07;;;;;;;1.88;1.40;;;;;;;-148.56;100.00;61375.16;4996058;28;20040;-32
2022/06/20 01:44:17;;;;;;;1.10;1.00;;;;;;;-148.56;100.00;61375.16;5004340;28;20035;-31
2022/06/20 01:46:43;;;;;;;1.75;1.20;;;;;;;-148.56;100.00;61375.16;5010397;28;20033;-30
2022/06/20 01:49:10;;;;;;;1.30;1.10;;;;;;;-148.56;100.00;61375.16;5008567;28;20056;-32
2022/06/20 01:51:58;;;;;;;1.40;1.27;;;;;;;-148.56;100.00;61375.16;4990667;28;20043;-30
2022/06/20 01:54:24;;;;;;;1.15;1.00;;;;;;;-148.56;100.00;61375.16;5005002;28;20133;-34
2022/06/20 01:56:50;;;;;;;1.25;1.15;;;;;;;-148.56;100.00;61375.16;5009067;28;20495;-32
2022/06/20 01:59:18;;;;;;;1.00;1.00;;;;;;;-148.56;100.00;61375.16;5010243;28;20045;-30
2022/06/20 02:01:44;;;;;;;1.33;1.02;;;;;;;-148.56;100.00;61375.16;5026443;28;21048;-31
2022/06/20 02:04:15;;;;;;;2.22;1.23;;;;;;;-148.56;100.00;61375.16;5008453;28;20037;-30
2022/06/20 02:06:41;;;;;;;;;;;;;;;-148.56;100.00;61375.16;5005145;28;20030;-29
2022/06/20 02:09:06;;;;;;;1.92;1.30;;;;;;;-148.56;100.00;61375.16;5004907;28;20653;-30
2022/06/20 02:11:38;;;;;;;1.20;1.10;;;;;;;-148.56;100.00;61375.16;5007197;28;20037;-33
2022/06/20 02:14:04;;;;;;;;;;;;;;;-148.56;100.00;61375.16;5012422;28;20142;-31
2022/06/20 02:16:30;;;;;;;1.30;1.20;;;;;;;-148.56;100.00;61375.16;5004844;28;19917;-29
2022/06/20 02:18:59;;;;;;;1.20;1.10;;;;;;;-148.56;100.00;61375.16;5005171;28;20025;-29
2022/06/20 02:21:25;;;;;;;1.35;1.25;;;;;;;-148.56;100.00;61375.16;4993953;28;20646;-32
2022/06/20 02:23:54;;;;;;;1.60;1.05;;;;;;;-148.56;100.00;61375.16;5006951;28;20025;-31
2022/06/20 02:26:20;;;;;;;1.10;1.00;;;;;;;-148.56;100.00;61375.16;5007747;28;20091;-33
2022/06/20 02:29:26;;;;;;;0.90;0.90;;;;;;;-148.56;100.00;61375.16;5006554;28;20057;-32
2022/06/20 02:31:55;;;;;;;1.13;1.02;;;;;;;-148.56;100.00;61375.16;5009279;28;20032;-30
2022/06/20 02:34:26;;;;;;;1.48;1.30;;;;;;;-148.56;100.00;61375.16;5008486;28;20913;-30
2022/06/20 02:36:51;;;;;;;1.02;1.02;;;;;;;-148.56;100.00;61375.16;5007024;28;20171;-30
2022/06/20 02:39:17;;;;;;;2.05;1.25;;;;;;;-148.56;100.00;61375.16;4989922;28;20066;-30
2022/06/20 02:41:43;;;;;;;1.27;1.10;;;;;;;-148.56;100.00;61375.16;5009897;28;20060;-32
2022/06/20 02:44:12;;;;;;;0.98;0.98;;;;;;;-148.56;100.00;61375.16;5007118;28;20045;-31
2022/06/20 02:46:38;;;;;;;1.27;1.08;;;;;;;-148.56;100.00;61375.16;4992325;28;20603;-30
2022/06/20 02:49:03;;;;;;;1.15;1.05;;;;;;;-148.56;100.00;61375.16;5003691;28;20107;-30
2022/06/20 02:51:32;;;;;;;1.27;1.05;;;;;;;-148.56;100.00;61375.16;5007101;28;20038;-31
2022/06/20 02:53:59;;;;;;;1.48;1.25;;;;;;;-148.56;100.00;61375.16;4991996;28;20112;-30
2022/06/20 02:56:27;;;;;;;1.17;1.08;;;;;;;-148.56;100.00;61375.16;5011257;28;20041;-29
2022/06/20 02:59:00;;;;;;;1.23;0.98;;;;;;;-148.56;100.00;61375.16;5008421;28;20091;-29
2022/06/20 03:01:34;;;;;;;1.77;1.00;;;;;;;-148.56;100.00;61375.16;5005922;28;20033;-30
2022/06/20 03:04:00;;;;;;;1.08;1.02;;;;;;;-148.56;100.00;61375.16;5009591;28;20528;-36
2022/06/20 03:06:33;;;;;;;1.77;1.23;;;;;;;-148.56;100.00;61375.16;5003717;28;20041;-34
2022/06/20 03:08:58;;;;;;;1.20;1.02;;;;;;;-148.56;100.00;61375.16;5000300;28;20025;-32
2022/06/20 03:11:25;;;;;;;1.30;1.20;;;;;;;-148.56;100.00;61375.16;5011736;28;20076;-30
2022/06/20 03:13:50;;;;;;;1.00;1.00;;;;;;;-148.56;100.00;61375.16;5008915;28;20484;-33
2022/06/20 03:16:17;;;;;;;1.60;1.10;;;;;;;-148.56;100.00;61375.16;4989581;28;20037;-31
2022/06/20 03:18:44;;;;;;;1.33;1.10;;;;;;;-148.56;100.00;61375.16;5008285;28;20191;-33
2022/06/20 03:21:09;;;;;;;1.05;0.95;;;;;;;-148.56;100.00;61375.16;4989726;28;20026;-32
2022/06/20 03:23:35;;;;;;;1.35;1.20;;;;;;;-148.56;100.00;61375.16;5005629;28;20032;-34
2022/06/20 03:26:03;;;;;;;1.70;1.10;;;;;;;-148.56;100.00;61375.16;5007315;28;20033;-36
2022/06/20 03:28:30;;;;;;;2.05;1.05;;;;;;;-148.56;100.00;61375.16;5008004;28;20026;-30
2022/06/20 03:30:59;;;;;;;1.30;1.20;;;;;;;-148.56;100.00;61375.16;5009425;28;20057;-31
2022/06/20 03:33:24;;;;;;;1.50;1.30;;;;;;;-148.56;100.00;61375.16;5008425;28;20021;-35
2022/06/20 03:35:53;;;;;;;1.90;1.10;;;;;;;-148.56;100.00;61375.16;5006527;28;20029;-33
2022/06/20 03:38:18;;;;;;;1.95;1.30;;;;;;;-148.56;100.00;61375.16;5008250;28;20041;-35
2022/06/20 03:40:44;;;;;;;1.85;1.20;;;;;;;-148.56;100.00;61375.16;5007503;28;20032;-32
2022/06/20 03:43:11;;;;;;;2.25;1.20;;;;;;;-148.56;100.00;61375.16;5008522;28;20025;-32
2022/06/20 03:45:39;;;;;;;1.40;1.13;;;;;;;-148.56;100.00;61375.16;4987642;28;20557;-32
2022/06/20 03:48:16;;;;;;;1.75;1.35;;;;;;;-148.56;100.00;61375.16;5007408;28;20033;-30
2022/06/20 03:50:58;;;;;;;2.00;1.20;;;;;;;-148.56;100.00;61375.16;5007432;28;20742;-29
2022/06/20 03:53:23;;;;;;;1.45;1.30;;;;;;;-148.56;100.00;61375.16;5006302;28;20117;-30
2022/06/20 03:55:55;;;;;;;1.35;1.10;;;;;;;-148.56;100.00;61375.16;5004365;28;20589;-30
2022/06/20 03:58:27;;;;;;;1.05;0.98;;;;;;;-148.56;100.00;61375.16;4989617;28;20040;-30
2022/06/20 04:01:24;;;;;;;0.95;0.90;;;;;;;-148.56;100.00;61375.16;5008964;28;20037;-33
2022/06/20 04:04:14;;;;;;;2.05;1.20;;;;;;;-148.56;100.00;61375.16;5005882;28;20045;-31
2022/06/20 04:06:44;;;;;;;1.40;1.00;;;;;;;-148.56;100.00;61375.16;5004438;28;20704;-30
2022/06/20 04:12:12;;;;;;;1.40;1.15;;;;;;;-148.56;100.00;61375.16;5007851;28;20095;-30
2022/06/20 04:14:46;;;;;;;2.95;1.20;;;;;;;-148.56;100.00;61375.16;5008941;28;20041;-33
2022/06/20 04:20:18;;;;;;;1.30;1.20;;;;;;;-148.56;100.00;61375.16;5012064;28;20080;-32
2022/06/20 04:22:44;;;;;;;2.05;1.30;;;;;;;-148.56;100.00;61375.16;5005882;28;20056;-33
2022/06/20 04:25:26;;;;;;;1.23;1.13;;;;;;;-148.56;100.00;61375.16;4991756;28;20037;-30
2022/06/20 04:27:59;;;;;;;1.42;1.30;;;;;;;-148.56;100.00;61375.16;5008728;28;20038;-31
2022/06/20 04:30:38;;;;;;;1.58;1.20;;;;;;;-148.56;100.00;61375.16;5008498;28;21923;-29
2022/06/20 04:33:13;;;;;;;1.52;1.13;;;;;;;-148.56;100.00;61375.16;5003797;28;20064;-29
2022/06/20 04:35:40;;;;;;;1.13;1.02;;;;;;;-148.56;100.00;61375.16;5007244;28;20025;-29
2022/06/20 04:38:12;;;;;;;1.75;1.25;;;;;;;-148.56;100.00;61375.16;4997691;28;20044;-31
2022/06/20 04:40:41;;;;;;;1.30;1.20;;;;;;;-148.56;100.00;61375.16;5007993;28;20029;-30
2022/06/20 04:43:14;;;;;;;1.92;1.13;;;;;;;-148.56;100.00;61375.16;4991415;28;20054;-29
2022/06/20 04:45:40;;;;;;;1.20;1.08;;;;;;;-148.56;100.00;61375.16;5009099;28;20954;-32
2022/06/20 04:48:14;;;;;;;1.45;1.02;;;;;;;-148.56;100.00;61375.16;5012513;28;20037;-29
2022/06/20 04:50:46;;;;;;;1.52;1.20;;;;;;;-148.56;100.00;61375.16;5008295;28;20160;-29
2022/06/20 04:53:13;;;;;;;1.17;1.00;;;;;;;-148.56;100.00;61375.16;5006699;28;20075;-29
2022/06/20 04:55:40;;;;;;;1.20;1.10;;;;;;;-148.56;100.00;61375.16;5011464;28;20754;-29
2022/06/20 04:58:07;;;;;;;1.35;1.25;;;;;;;-148.56;100.00;61375.16;5009227;28;20017;-30
2022/06/20 05:00:38;;;;;;;1.25;1.10;;;;;;;-148.56;100.00;61375.16;5007701;28;20695;-30
2022/06/20 05:03:05;;;;;;;1.50;1.20;;;;;;;-148.56;100.00;61375.16;5008888;28;20115;-30
2022/06/20 05:05:30;;;;;;;1.10;1.00;;;;;;;-148.56;100.00;61375.16;5009606;28;20515;-29
2022/06/20 05:07:56;;;;;;;1.10;1.00;;;;;;;-148.56;100.00;61375.16;5012904;28;20048;-31
2022/06/20 05:10:31;;;;;;;1.63;1.13;;;;;;;-148.56;100.00;61375.16;5011104;28;20037;-29
2022/06/20 05:13:05;;;;;;;1.38;1.17;;;;;;;-148.56;100.00;61375.16;5010296;28;20025;-32
2022/06/20 05:15:36;;;;;;;1.27;1.02;;;;;;;-148.56;100.00;61375.16;4987962;28;20040;-30
2022/06/20 05:18:08;;;;;;;1.95;1.13;;;;;;;-148.56;100.00;61375.16;5022335;28;20082;-32
2022/06/20 05:20:35;;;;;;;1.30;1.20;;;;;;;-148.56;100.00;61375.16;5009601;28;20593;-29
2022/06/20 05:23:09;;;;;;;0.98;0.88;;;;;;;-148.56;100.00;61375.16;4993015;28;20117;-30
2022/06/20 05:25:35;;;;;;;1.23;1.05;;;;;;;-148.56;100.00;61375.16;4996383;28;20068;-30
2022/06/20 05:28:02;;;;;;;1.50;1.27;;;;;;;-148.56;100.00;61375.16;4993347;28;20392;-29
2022/06/20 05:30:30;;;;;;;1.20;1.10;;;;;;;-148.56;100.00;61375.16;4994812;28;20026;-31
2022/06/20 05:33:11;;;;;;;1.80;1.33;;;;;;;-148.56;100.00;61375.16;5009083;28;20127;-32
2022/06/20 05:35:42;;;;;;;1.00;0.90;;;;;;;-148.56;100.00;61375.16;5008828;28;20025;-31
2022/06/20 05:38:14;;;;;;;1.20;1.10;;;;;;;-148.56;100.00;61375.16;4997781;28;20052;-32
2022/06/20 05:40:54;;;;;;;1.63;1.02;;;;;;;-148.56;100.00;61375.16;5008200;28;20038;-30
2022/06/20 05:43:20;;;;;;;1.35;1.08;;;;;;;-148.56;100.00;61375.16;5021221;28;20111;-29
2022/06/20 05:46:06;;;;;;;2.60;1.27;;;;;;;-148.56;100.00;61375.16;5002988;28;20033;-29
2022/06/20 05:48:43;;;;;;;1.45;1.15;;;;;;;-148.56;100.00;61375.16;4995756;28;20052;-30
2022/06/20 05:51:09;;;;;;;2.15;1.20;;;;;;;-148.56;100.00;61375.16;4993368;28;20642;-30
2022/06/20 05:53:41;;;;;;;1.40;1.30;;;;;;;-148.56;100.00;61375.16;4990120;28;20049;-30
2022/06/20 05:56:27;;;;;;;1.50;1.13;;;;;;;-148.56;100.00;61375.16;5009059;28;20279;-31
2022/06/20 05:58:53;;;;;;;2.45;1.35;;;;;;;-148.56;100.00;61375.16;5013064;28;20041;-32
2022/06/20 06:01:21;;;;;;;1.45;1.33;;;;;;;-148.56;100.00;61375.16;5007583;28;20084;-31
2022/06/20 06:04:17;;;;;;;1.65;1.10;;;;;;;-148.56;100.00;61375.16;4991715;28;20048;-34
2022/06/20 06:06:48;;;;;;;1.08;0.95;;;;;;;-148.56;100.00;61375.16;5005817;28;20103;-31
2022/06/20 06:09:23;;;;;;;1.65;1.10;;;;;;;-148.56;100.00;61375.16;5009988;28;20033;-31
2022/06/20 06:11:53;;;;;;;1.35;1.20;;;;;;;-148.56;100.00;61375.16;5003767;28;20428;-34
2022/06/20 06:14:21;;;;;;;1.27;1.15;;;;;;;-148.56;100.00;61375.16;5004306;28;20065;-33
2022/06/20 06:17:06;;;;;;;1.70;1.20;;;;;;;-148.56;100.00;61375.16;5012105;28;20065;-34
2022/06/20 06:19:52;;;;;;;0.95;0.93;;;;;;;-148.56;100.00;61375.16;5004582;28;20033;-31
2022/06/20 06:22:25;;;;;;;2.17;1.13;;;;;;;-148.56;100.00;61375.16;5004717;28;20033;-30
2022/06/20 06:24:54;;;;;;;1.20;1.00;;;;;;;-148.56;100.00;61375.16;5006259;28;20036;-31
2022/06/20 06:27:24;;;;;;;1.20;1.10;;;;;;;-148.56;100.00;61375.16;5014741;28;20029;-34
2022/06/20 06:30:00;;;;;;;1.23;1.05;;;;;;;-148.56;100.00;61375.16;4987056;28;20033;-32
2022/06/20 06:32:30;;;;;;;1.88;1.25;;;;;;;-148.56;100.00;61375.16;5003101;28;20029;-32
2022/06/20 06:35:16;;;;;;;1.20;1.10;;;;;;;-148.56;100.00;61375.16;4979395;28;20030;-32
2022/06/20 06:38:00;;;;;;;1.35;1.02;;;;;;;-148.56;100.00;61375.16;4983936;28;20264;-33
2022/06/20 06:40:38;;;;;;;1.20;1.02;;;;;;;-148.56;100.00;61375.16;4986955;28;20116;-36
2022/06/20 06:43:28;;;;;;;1.00;0.90;;;;;;;-148.56;100.00;61375.16;4979062;28;20503;-35
2022/06/20 06:45:54;;;;;;;1.73;1.30;;;;;;;-148.56;100.00;61375.16;4985509;28;20095;-31
2022/06/20 06:48:30;;;;;;;1.30;1.20;;;;;;;-148.56;100.00;61375.16;4986808;28;20131;-29
2022/06/20 06:51:08;;;;;;;1.60;1.17;;;;;;;-148.56;100.00;61375.16;4994617;28;20160;-29
2022/06/20 06:53:46;;;;;;;1.25;1.15;;;;;;;-148.56;100.00;61375.16;5011596;28;20040;-32
2022/06/20 06:56:24;;;;;;;0.80;0.80;;;;;;;-148.56;100.00;61375.16;5001979;28;20036;-30
2022/06/20 06:58:53;;;;;;;1.38;1.05;;;;;;;-148.56;100.00;61375.16;5008305;28;20095;-30
2022/06/20 07:01:21;;;;;;;1.30;1.20;;;;;;;-148.56;100.00;61375.16;5003639;28;20116;-30
2022/06/20 07:03:56;;;;;;;1.48;1.13;;;;;;;-148.56;100.00;61375.16;5004066;28;20045;-28
2022/06/20 07:06:21;;;;;;;0.98;0.90;;;;;;;-148.56;100.00;61375.16;5007307;28;20037;-32
2022/06/20 07:08:50;;;;;;;1.83;1.20;;;;;;;-148.56;100.00;61375.16;5005154;28;20038;-32
2022/06/20 07:11:23;;;;;;;1.20;1.10;;;;;;;-148.56;100.00;61375.16;4993207;28;20144;-29
2022/06/20 07:13:49;;;;;;;1.00;0.98;;;;;;;-148.56;100.00;61375.16;5010606;28;20037;-31
2022/06/20 07:16:53;;;;;;;1.20;1.10;;;;;;;-148.56;100.00;61375.16;5006002;28;20083;-31
2022/06/20 07:19:19;;;;;;;1.52;0.90;;;;;;;-148.56;100.00;61375.16;5004726;28;20607;-33
2022/06/20 07:21:44;;;;;;;1.20;1.10;;;;;;;-148.56;100.00;61375.16;5001952;28;20029;-29
2022/06/20 07:24:18;;;;;;;1.17;1.02;;;;;;;-148.56;100.00;61375.16;5006732;28;20099;-29
2022/06/20 07:27:06;;;;;;;1.38;1.20;;;;;;;-148.56;100.00;61375.16;5021391;28;20041;-30
2022/06/20 07:29:41;;;;;;;1.10;1.00;;;;;;;-148.56;100.00;61375.16;5004785;28;20132;-29
2022/06/20 07:32:12;;;;;;;2.70;1.08;;;;;;;-148.56;100.00;61375.16;5007867;28;20377;-29
2022/06/20 07:34:45;;;;;;;1.15;1.05;;;;;;;-148.56;100.00;61375.16;5003275;28;20352;-30
2022/06/20 07:37:13;;;;;;;0.93;0.93;;;;;;;-148.56;100.00;61375.16;5007278;28;20037;-30
2022/06/20 07:39:43;;;;;;;1.00;0.90;;;;;;;-148.56;100.00;61375.16;5008699;28;20759;-30
2022/06/20 07:42:22;;;;;;;1.17;0.98;;;;;;;-148.56;100.00;61375.16;5005277;28;20029;-30
2022/06/20 07:44:59;;;;;;;1.23;1.13;;;;;;;-148.56;100.00;61375.16;5008547;28;20025;-31
2022/06/20 07:47:31;;;;;;;3.10;1.30;;;;;;;-148.56;100.00;61375.16;4991286;28;20031;-33
2022/06/20 07:49:57;;;;;;;;;;;;;;;-148.56;100.00;61375.16;4987027;28;20022;-35
2022/06/20 07:52:28;;;;;;;1.58;1.08;;;;;;;-148.56;100.00;61375.16;4974279;28;19925;-32
2022/06/20 07:54:56;;;;;;;1.13;1.00;;;;;;;-148.56;100.00;61375.16;4977510;28;20034;-33
2022/06/20 07:57:37;;;;;;;1.20;1.10;;;;;;;-148.56;100.00;61375.16;4974238;28;20156;-30
2022/06/20 08:00:23;;;;;;;1.20;1.10;;;;;;;-148.56;100.00;61375.16;4965572;28;20051;-32
2022/06/20 08:02:52;;;;;;;1.10;1.00;;;;;;;-148.56;100.00;61375.16;4958851;28;20029;-36
2022/06/20 08:05:41;;;;;;;1.08;0.98;;;;;;;-148.56;100.00;61375.16;4963211;28;20034;-36
2022/06/20 08:08:27;;;;;;;0.98;0.88;;;;;;;-148.56;100.00;61375.16;4961202;28;20038;-36
2022/06/20 08:11:03;;;;;;;1.15;1.00;;;;;;;-148.56;100.00;61375.16;4969678;28;20029;-32
2022/06/20 08:13:35;;;;;;;1.48;1.20;;;;;;;-148.56;100.00;61375.16;4966646;28;20025;-36
2022/06/20 08:16:32;;;;;;;1.45;1.00;;;;;;;-148.56;100.00;61375.16;4968104;28;20033;-36
2022/06/20 08:18:58;;;;;;;1.23;0.93;;;;;;;-148.56;100.00;61375.16;4922093;28;22541;-32
2022/06/20 08:21:26;;;;;;;1.33;1.13;;;;;;;-148.56;100.00;61375.16;4954502;28;20036;-38
2022/06/20 08:24:04;;;;;;;1.00;0.95;;;;;;;-148.56;100.00;61375.16;4976844;28;20030;-37
2022/06/20 08:26:43;;;;;;;1.73;1.10;;;;;;;-148.56;100.00;61375.16;4972655;28;20838;-37
2022/06/20 08:29:21;;;;;;;1.17;1.08;;;;;;;-148.56;100.00;61375.16;4948041;28;20036;-37
2022/06/20 08:31:50;;;;;;;1.20;1.10;;;;;;;-148.56;100.00;61375.16;4970173;28;20112;-31
2022/06/20 08:34:22;;;;;;;1.30;1.20;;;;;;;-148.56;100.00;61375.16;4970216;28;20037;-37
2022/06/20 08:36:56;;;;;;;1.35;1.20;;;;;;;-148.56;100.00;61375.16;4967895;28;20025;-32
2022/06/20 08:39:29;;;;;;;1.20;1.05;;;;;;;-148.56;100.00;61375.16;4971360;28;20060;-37
2022/06/20 08:42:29;;;;;;;1.30;0.93;;;;;;;-148.56;100.00;61375.16;4972269;28;20025;-35
2022/06/20 08:45:06;;;;;;;1.15;1.00;;;;;;;-148.56;100.00;61375.16;4973709;28;20492;-35
2022/06/20 08:47:57;;;;;;;1.38;0.98;;;;;;;-148.56;100.00;61375.16;4960291;28;20033;-31
2022/06/20 08:50:34;;;;;;;1.88;1.00;;;;;;;-148.56;100.00;61375.16;4964127;28;20029;-32
2022/06/20 08:53:23;;;;;;;2.50;1.10;;;;;;;-148.56;100.00;61375.16;5004787;28;22940;-37
2022/06/20 08:56:07;;;;;;;1.17;1.00;;;;;;;-148.56;100.00;61375.16;5007688;28;20022;-33
2022/06/20 08:58:48;;;;;;;0.93;0.88;;;;;;;-148.56;100.00;61375.16;5010377;28;20037;-31
2022/06/20 09:01:39;;;;;;;0.90;0.77;;;;;;;-148.56;100.00;61375.16;5007402;28;20029;-31
2022/06/20 09:04:29;;;;;;;1.48;1.30;;;;;;;-148.56;100.00;61375.16;5006054;28;20064;-31
2022/06/20 09:07:13;;;;;;;1.23;1.02;;;;;;;-148.56;100.00;61375.16;5009282;28;20029;-30
2022/06/20 09:10:12;;;;;;;1.40;1.00;;;;;;;-148.56;100.00;61375.16;5008173;28;20087;-31
2022/06/20 09:13:08;;;;;;;1.58;0.90;;;;;;;-148.56;100.00;61375.16;5010858;28;20030;-32
2022/06/20 09:15:58;;;;;;;1.58;1.10;;;;;;;-148.56;100.00;61375.16;5004833;28;20037;-31
2022/06/20 09:18:35;;;;;;;1.35;1.00;;;;;;;-148.56;100.00;61375.16;5006641;28;20133;-31
2022/06/20 09:21:25;;;;;;;1.35;1.00;;;;;;;-148.56;100.00;61375.16;5006391;28;20055;-34
2022/06/20 09:24:09;;;;;;;1.25;1.05;;;;;;;-148.56;100.00;61375.16;5006380;28;20107;-30
2022/06/20 09:26:42;;;;;;;1.27;1.17;;;;;;;-148.56;100.00;61375.16;5007169;28;20559;-31
2022/06/20 09:29:34;;;;;;;1.63;1.00;;;;;;;-148.56;100.00;61375.16;4998487;28;20022;-33
2022/06/20 09:32:22;;;;;;;1.23;1.02;;;;;;;-148.56;100.00;61375.16;5004699;28;20037;-30
2022/06/20 09:35:09;;;;;;;1.17;1.08;;;;;;;-148.56;100.00;61375.16;5001292;28;22987;-32
2022/06/20 09:37:48;;;;;;;1.00;0.90;;;;;;;-148.56;100.00;61375.16;5008386;28;20141;-31
2022/06/20 09:40:20;;;;;;;1.17;1.10;;;;;;;-148.56;100.00;61375.16;5022219;28;20036;-29
2022/06/20 09:42:52;;;;;;;1.20;0.90;;;;;;;-148.56;100.00;61375.16;5009114;28;20052;-32
2022/06/20 09:45:25;;;;;;;1.35;1.15;;;;;;;-148.56;100.00;61375.16;5006028;28;20957;-33
2022/06/20 09:47:53;;;;;;;1.40;1.25;;;;;;;-148.56;100.00;61375.16;5007678;28;20736;-29
2022/06/20 09:50:29;;;;;;;1.00;1.00;;;;;;;-148.56;100.00;61375.16;5008843;28;20623;-32
2022/06/20 09:53:22;;;;;;;1.38;1.15;;;;;;;-148.56;100.00;61375.16;4990710;28;20025;-31
2022/06/20 09:56:06;;;;;;;1.00;1.00;;;;;;;-148.56;100.00;61375.16;5006660;28;20128;-30
2022/06/20 09:59:01;;;;;;;1.30;1.20;;;;;;;-148.56;100.00;61375.16;5009200;28;20565;-32
2022/06/20 10:02:11;;;;;;;1.13;0.98;;;;;;;-148.56;100.00;61375.16;5003857;28;20033;-35
2022/06/20 10:04:59;;;;;;;1.30;1.20;;;;;;;-148.56;100.00;61375.16;4930258;28;20965;-31
2022/06/20 10:07:29;;;;;;;1.20;1.10;;;;;;;-148.56;100.00;61375.16;5004731;28;20072;-32
2022/06/20 10:10:07;;;;;;;1.38;1.10;;;;;;;-148.56;100.00;61375.16;5007418;28;20029;-32
2022/06/20 10:12:54;;;;;;;1.45;1.05;;;;;;;-148.56;100.00;61375.16;5008597;28;20195;-31
2022/06/20 10:16:01;;;;;;;1.63;1.10;;;;;;;-148.56;100.00;61375.16;5007356;28;20787;-31
2022/06/20 10:18:55;;;;;;;0.88;0.88;;;;;;;-148.56;100.00;61375.16;5006942;28;20776;-34
2022/06/20 10:21:34;;;;;;;1.20;1.10;;;;;;;-148.56;100.00;61375.16;5002476;28;20037;-31
2022/06/20 10:24:05;;;;;;;1.48;1.33;;;;;;;-148.56;100.00;61375.16;5007134;28;20486;-33
2022/06/20 10:26:36;;;;;;;1.35;1.23;;;;;;;-148.56;100.00;61375.16;5008575;28;20056;-33
2022/06/20 10:29:01;;;;;;;1.60;1.00;;;;;;;-148.56;100.00;61375.16;5004916;28;20100;-33
2022/06/20 10:31:29;;;;;;;1.08;1.00;;;;;;;-148.56;100.00;61375.16;5005328;28;20836;-33
2022/06/20 10:34:15;;;;;;;1.08;0.98;;;;;;;-148.56;100.00;61375.16;5004758;28;20430;-32
2022/06/20 10:36:52;;;;;;;1.23;1.13;;;;;;;-148.56;100.00;61375.16;5002961;28;20037;-38
2022/06/20 10:39:27;;;;;;;1.27;1.10;;;;;;;-148.56;100.00;61375.16;5010134;28;22101;-30
2022/06/20 10:42:02;;;;;;;1.17;1.08;;;;;;;-148.56;100.00;61375.16;5022116;28;20064;-31
2022/06/20 10:44:36;;;;;;;1.50;1.13;;;;;;;-148.56;100.00;61375.16;5005395;28;20619;-31
2022/06/20 10:47:34;;;;;;;1.20;1.10;;;;;;;-148.56;100.00;61375.16;5002048;28;20118;-32
2022/06/20 10:50:12;;;;;;;0.90;0.90;;;;;;;-148.56;100.00;61375.16;5007352;28;20029;-31
2022/06/20 10:52:51;;;;;;;2.00;1.20;;;;;;;-148.56;100.00;61375.16;5006232;28;20551;-34
2022/06/20 10:55:39;;;;;;;1.13;1.00;;;;;;;-148.56;100.00;61375.16;5006988;28;20054;-33
2022/06/20 10:58:55;;;;;;;1.95;1.20;;;;;;;-148.56;100.00;61375.16;5008818;28;20040;-32
2022/06/20 11:01:35;;;;;;;1.20;1.02;;;;;;;-148.56;100.00;61375.16;4942596;28;20039;-30
2022/06/20 11:04:25;;;;;;;1.58;1.13;;;;;;;-148.56;100.00;61375.16;4992960;28;20137;-32
2022/06/20 11:07:05;;;;;;;1.40;1.20;;;;;;;-148.56;100.00;61375.16;5006432;28;20048;-30
2022/06/20 11:09:49;;;;;;;1.63;1.38;;;;;;;-148.56;100.00;61375.16;5006116;28;20052;-30
2022/06/20 11:12:44;;;;;;;1.70;1.38;;;;;;;-148.56;100.00;61375.16;5004926;28;20025;-34
2022/06/20 11:15:22;;;;;;;1.85;1.23;;;;;;;-148.56;100.00;61375.16;4996366;28;20072;-32
2022/06/20 11:18:08;;;;;;;1.35;1.00;;;;;;;-148.56;100.00;61375.16;5008843;28;20884;-32
2022/06/20 11:20:38;;;;;;;2.45;1.15;;;;;;;-148.56;100.00;61375.16;5007173;28;20055;-31
2022/06/20 11:23:11;;;;;;;1.40;1.20;;;;;;;-148.56;100.00;61375.16;5007055;28;20029;-32
2022/06/20 11:26:09;;;;;;;1.23;1.13;;;;;;;-148.56;100.00;61375.16;5003619;28;20127;-32
2022/06/20 11:28:43;;;;;;;1.00;0.90;;;;;;;-148.56;100.00;61375.16;4995936;28;20042;-32
2022/06/20 11:31:15;;;;;;;1.23;1.13;;;;;;;-148.56;100.00;61375.16;5007504;28;20680;-33
2022/06/20 11:34:01;;;;;;;1.38;1.15;;;;;;;-148.56;100.00;61375.16;5006985;28;20034;-31
2022/06/20 11:36:55;;;;;;;1.10;1.00;;;;;;;-148.56;100.00;61375.16;5013197;28;20083;-33
2022/06/20 11:39:32;;;;;;;2.42;1.10;;;;;;;-148.56;100.00;61375.16;5005688;28;20123;-32
2022/06/20 11:42:25;;;;;;;1.70;1.30;;;;;;;-148.56;100.00;61375.16;5006373;28;20665;-33
2022/06/20 11:44:59;;;;;;;0.90;0.90;;;;;;;-148.56;100.00;61375.16;5005201;28;20030;-31
2022/06/20 11:47:46;;;;;;;1.30;1.10;;;;;;;-148.56;100.00;61375.16;5004287;28;20032;-31
2022/06/20 11:50:31;;;;;;;1.15;1.02;;;;;;;-148.56;100.00;61375.16;5006676;28;20037;-32
2022/06/20 11:53:02;;;;;;;1.50;1.25;;;;;;;-148.56;100.00;61375.16;4996479;28;20029;-32
2022/06/20 11:55:27;;;;;;;;;;;;;;;-148.56;100.00;61375.16;5004926;28;20112;-32